createdAt,value
2019-02-20T00:01:32.119Z,5.40
2019-02-20T00:04:35.624Z,5.40
2019-02-20T00:07:39.263Z,5.40
2019-02-20T00:10:42.731Z,5.30
2019-02-20T00:13:46.172Z,5.30
2019-02-20T00:16:49.630Z,5.30
2019-02-20T00:19:53.051Z,5.30
2019-02-20T00:22:56.675Z,5.30
2019-02-20T00:26:00.035Z,5.20
2019-02-20T00:29:03.748Z,5.10
2019-02-20T00:32:07.140Z,5.10
2019-02-20T00:35:10.759Z,5.10
2019-02-20T00:38:14.187Z,5.00
2019-02-20T00:41:17.756Z,5.10
2019-02-20T00:44:39.364Z,5.10
2019-02-20T00:48:14.287Z,5.20
2019-02-20T00:51:43.249Z,5.20
2019-02-20T00:54:46.827Z,5.30
2019-02-20T00:57:50.263Z,5.30
2019-02-20T01:00:53.828Z,5.30
2019-02-20T01:03:57.266Z,5.40
2019-02-20T01:07:01.755Z,5.40
2019-02-20T01:10:05.460Z,5.40
2019-02-20T01:13:09.105Z,5.40
2019-02-20T01:16:12.564Z,5.30
2019-02-20T01:19:16.008Z,5.30
2019-02-20T01:22:19.472Z,5.30
2019-02-20T01:25:22.873Z,5.30
2019-02-20T01:28:26.344Z,5.20
2019-02-20T01:31:29.875Z,5.20
2019-02-20T01:34:33.379Z,5.20
2019-02-20T01:37:36.780Z,5.10
2019-02-20T01:40:40.280Z,5.10
2019-02-20T01:43:43.719Z,5.10
2019-02-20T01:46:47.180Z,5.00
2019-02-20T01:49:50.683Z,5.20
2019-02-20T01:52:54.089Z,5.20
2019-02-20T01:55:57.508Z,5.30
2019-02-20T01:59:01.947Z,5.40
2019-02-20T02:02:05.412Z,5.40
2019-02-20T02:05:15.349Z,5.40
2019-02-20T02:08:16.755Z,5.40
2019-02-20T02:11:20.320Z,5.40
2019-02-20T02:14:23.824Z,5.40
2019-02-20T02:17:27.220Z,5.40
2019-02-20T02:20:30.725Z,5.40
2019-02-20T02:23:34.264Z,5.50
2019-02-20T02:26:37.724Z,5.50
2019-02-20T02:29:41.265Z,5.50
2019-02-20T02:32:44.829Z,5.50
2019-02-20T02:35:49.261Z,5.50
2019-02-20T02:38:53.013Z,5.60
2019-02-20T02:41:56.478Z,5.60
2019-02-20T02:44:59.871Z,5.60
2019-02-20T02:48:03.371Z,5.60
2019-02-20T02:51:06.873Z,5.60
2019-02-20T02:54:10.416Z,5.60
2019-02-20T02:57:13.880Z,5.60
2019-02-20T03:00:17.280Z,5.70
2019-02-20T03:03:20.992Z,5.70
2019-02-20T03:06:24.390Z,5.60
2019-02-20T03:09:27.892Z,5.60
2019-02-20T03:12:31.298Z,5.60
2019-02-20T03:15:34.695Z,5.70
2019-02-20T03:18:38.236Z,5.70
2019-02-20T03:21:41.696Z,5.60
2019-02-20T03:24:45.200Z,5.70
2019-02-20T03:27:48.596Z,5.60
2019-02-20T03:30:52.104Z,5.60
2019-02-20T03:33:55.598Z,5.60
2019-02-20T03:36:59.040Z,5.60
2019-02-20T03:40:02.649Z,5.60
2019-02-20T03:43:06.103Z,5.50
2019-02-20T03:46:09.648Z,5.50
2019-02-20T03:49:13.147Z,5.50
2019-02-20T03:52:16.612Z,5.50
2019-02-20T03:55:20.057Z,5.50
2019-02-20T03:58:23.620Z,5.50
2019-02-20T04:01:27.059Z,5.50
2019-02-20T04:04:30.562Z,5.50
2019-02-20T04:07:34.019Z,5.50
2019-02-20T04:10:37.477Z,5.50
2019-02-20T04:13:41.060Z,5.50
2019-02-20T04:16:44.944Z,5.40
2019-02-20T04:19:48.476Z,5.50
2019-02-20T04:22:52.093Z,5.50
2019-02-20T04:25:56.472Z,5.50
2019-02-20T04:29:00.065Z,5.50
2019-02-20T04:32:03.736Z,5.50
2019-02-20T04:35:07.279Z,5.40
2019-02-20T04:38:11.776Z,5.50
2019-02-20T04:41:15.165Z,5.50
2019-02-20T04:44:18.596Z,5.50
2019-02-20T04:47:23.081Z,5.50
2019-02-20T04:50:26.693Z,5.40
2019-02-20T04:53:30.134Z,5.40
2019-02-20T04:56:33.597Z,5.30
2019-02-20T04:59:37.136Z,5.30
2019-02-20T05:02:40.593Z,5.20
2019-02-20T05:05:44.104Z,5.30
2019-02-20T05:08:48.665Z,5.30
2019-02-20T05:11:52.138Z,5.30
2019-02-20T05:14:55.568Z,5.40
2019-02-20T05:17:59.132Z,5.40
2019-02-20T05:21:02.532Z,5.40
2019-02-20T05:24:06.093Z,5.40
2019-02-20T05:27:09.637Z,5.40
2019-02-20T05:30:13.153Z,5.50
2019-02-20T05:33:16.647Z,5.50
2019-02-20T05:36:20.088Z,5.50
2019-02-20T05:39:23.652Z,5.50
2019-02-20T05:42:27.091Z,5.60
2019-02-20T05:45:30.653Z,5.60
2019-02-20T05:48:34.304Z,5.60
2019-02-20T05:51:37.760Z,5.60
2019-02-20T05:54:41.208Z,5.60
2019-02-20T05:57:44.667Z,5.70
2019-02-20T06:00:48.317Z,5.60
2019-02-20T06:03:51.816Z,5.60
2019-02-20T06:06:55.280Z,5.70
2019-02-20T06:09:58.673Z,5.70
2019-02-20T06:13:03.192Z,5.70
2019-02-20T06:16:06.700Z,5.70
2019-02-20T06:19:10.315Z,5.70
2019-02-20T06:22:13.812Z,5.80
2019-02-20T06:25:17.313Z,5.80
2019-02-20T06:28:20.713Z,5.80
2019-02-20T06:31:24.215Z,5.80
2019-02-20T06:34:27.711Z,5.70
2019-02-20T06:37:31.113Z,5.70
2019-02-20T06:40:34.587Z,5.60
2019-02-20T06:43:38.016Z,5.50
2019-02-20T06:46:41.624Z,5.60
2019-02-20T06:49:45.124Z,5.60
2019-02-20T06:52:48.672Z,5.70
2019-02-20T06:55:52.233Z,5.70
2019-02-20T06:58:55.836Z,5.70
2019-02-20T07:01:59.236Z,5.90
2019-02-20T07:05:44.212Z,6.00
2019-02-20T07:09:15.167Z,6.00
2019-02-20T07:13:02.409Z,6.10
2019-02-20T07:16:27.127Z,6.00
2019-02-20T07:19:57.348Z,6.00
2019-02-20T07:23:38.844Z,6.10
2019-02-20T07:27:16.211Z,6.20
2019-02-20T07:30:21.298Z,6.20
2019-02-20T07:33:24.781Z,6.30
2019-02-20T07:36:28.252Z,6.30
2019-02-20T07:39:31.795Z,6.40
2019-02-20T07:42:35.357Z,6.50
2019-02-20T07:45:38.748Z,6.50
2019-02-20T07:48:42.398Z,6.60
2019-02-20T07:51:46.887Z,6.70
2019-02-20T07:54:50.424Z,6.70
2019-02-20T07:57:54.117Z,6.70
2019-02-20T08:00:57.493Z,6.70
2019-02-20T08:04:01.032Z,6.70
2019-02-20T08:07:04.499Z,6.80
2019-02-20T08:10:09.672Z,6.80
2019-02-20T08:13:13.242Z,6.80
2019-02-20T08:16:16.744Z,6.80
2019-02-20T08:19:21.915Z,6.80
2019-02-20T08:22:25.488Z,6.90
2019-02-20T08:25:29.032Z,7.00
2019-02-20T08:28:32.602Z,7.10
2019-02-20T08:31:35.998Z,7.20
2019-02-20T08:34:40.460Z,7.40
2019-02-20T08:37:44.024Z,7.50
2019-02-20T08:40:47.423Z,7.60
2019-02-20T08:43:50.929Z,7.50
2019-02-20T08:46:55.353Z,7.70
2019-02-20T08:49:58.897Z,7.90
2019-02-20T08:53:02.461Z,7.90
2019-02-20T08:56:05.967Z,7.90
2019-02-20T08:59:09.448Z,8.00
2019-02-20T09:02:12.972Z,8.00
2019-02-20T09:05:16.512Z,8.10
2019-02-20T09:08:19.971Z,8.10
2019-02-20T09:11:23.476Z,8.00
2019-02-20T09:14:26.915Z,8.10
2019-02-20T09:17:30.372Z,8.10
2019-02-20T09:20:33.792Z,8.10
2019-02-20T09:23:37.174Z,8.20
2019-02-20T09:26:40.584Z,8.20
2019-02-20T09:29:44.018Z,8.20
2019-02-20T09:32:47.476Z,8.10
2019-02-20T09:35:50.984Z,8.10
2019-02-20T09:38:54.478Z,8.50
2019-02-20T09:41:57.984Z,8.80
2019-02-20T09:45:01.456Z,9.10
2019-02-20T09:48:06.139Z,9.00
2019-02-20T09:51:09.612Z,8.70
2019-02-20T09:54:14.036Z,9.10
2019-02-20T09:57:17.440Z,9.60
2019-02-20T10:00:20.945Z,9.60
2019-02-20T10:03:24.548Z,9.60
2019-02-20T10:06:28.068Z,9.90
2019-02-20T10:09:31.452Z,10.10
2019-02-20T10:12:34.957Z,10.20
2019-02-20T10:15:38.464Z,10.40
2019-02-20T10:18:41.957Z,10.20
2019-02-20T10:21:45.358Z,10.10
2019-02-20T10:24:49.064Z,10.70
2019-02-20T10:27:52.857Z,11.40
2019-02-20T10:30:56.440Z,11.40
2019-02-20T10:33:59.982Z,11.20
2019-02-20T10:37:03.583Z,11.50
2019-02-20T10:40:07.692Z,12.60
2019-02-20T10:43:11.773Z,12.80
2019-02-20T10:46:15.361Z,13.60
2019-02-20T10:49:19.488Z,14.80
2019-02-20T10:52:23.141Z,13.80
2019-02-20T10:55:26.631Z,13.50
2019-02-20T10:58:30.048Z,12.40
2019-02-20T11:01:33.583Z,12.20
2019-02-20T11:04:37.158Z,11.40
2019-02-20T11:07:40.610Z,11.50
2019-02-20T11:10:44.513Z,12.80
2019-02-20T11:13:48.067Z,14.00
2019-02-20T11:16:51.508Z,14.30
2019-02-20T11:19:55.024Z,13.80
2019-02-20T11:22:58.521Z,14.20
2019-02-20T11:26:02.085Z,13.80
2019-02-20T11:29:05.519Z,13.20
2019-02-20T11:32:09.120Z,12.30
2019-02-20T11:35:12.636Z,12.30
2019-02-20T11:38:16.224Z,12.60
2019-02-20T11:41:19.765Z,12.60
2019-02-20T11:44:23.336Z,12.90
2019-02-20T11:47:26.881Z,11.80
2019-02-20T11:50:30.384Z,12.50
2019-02-20T11:53:37.143Z,12.40
2019-02-20T11:56:39.024Z,12.20
2019-02-20T11:59:42.572Z,12.20
2019-02-20T12:02:46.121Z,12.40
2019-02-20T12:05:49.620Z,11.80
2019-02-20T12:08:53.096Z,11.80
2019-02-20T12:11:56.737Z,11.60
2019-02-20T12:15:00.260Z,11.20
2019-02-20T12:18:03.698Z,11.30
2019-02-20T12:21:07.176Z,10.90
2019-02-20T12:24:11.861Z,10.80
2019-02-20T12:27:15.537Z,11.30
2019-02-20T12:30:19.032Z,11.20
2019-02-20T12:33:22.484Z,11.00
2019-02-20T12:36:25.880Z,11.00
2019-02-20T12:39:29.339Z,10.90
2019-02-20T12:42:32.845Z,10.80
2019-02-20T12:45:36.240Z,11.00
2019-02-20T12:48:39.541Z,10.80
2019-02-20T12:51:42.977Z,11.40
2019-02-20T12:54:46.437Z,12.00
2019-02-20T12:57:49.844Z,13.00
2019-02-20T13:00:53.247Z,13.20
2019-02-20T13:03:56.636Z,13.50
2019-02-20T13:07:00.046Z,14.40
2019-02-20T13:10:03.611Z,14.40
2019-02-20T13:13:07.243Z,14.50
2019-02-20T13:16:10.776Z,13.60
2019-02-20T13:19:14.145Z,13.90
2019-02-20T13:22:17.650Z,14.20
2019-02-20T13:25:21.191Z,13.60
2019-02-20T13:28:24.551Z,12.60
2019-02-20T13:31:27.952Z,11.90
2019-02-20T13:34:31.351Z,11.50
2019-02-20T13:37:34.432Z,11.50
2019-02-20T13:40:38.087Z,11.60
2019-02-20T13:43:41.657Z,12.20
2019-02-20T13:46:44.980Z,12.70
2019-02-20T13:49:48.759Z,12.80
2019-02-20T13:52:52.761Z,13.20
2019-02-20T13:55:56.380Z,13.90
2019-02-20T13:59:00.196Z,14.00
2019-02-20T14:02:03.587Z,13.90
2019-02-20T14:05:07.504Z,13.50
2019-02-20T14:08:11.108Z,12.00
2019-02-20T14:11:14.611Z,11.50
2019-02-20T14:14:18.010Z,11.30
2019-02-20T14:17:26.747Z,11.50
2019-02-20T14:20:26.755Z,11.30
2019-02-20T14:23:30.252Z,11.00
2019-02-20T14:26:33.800Z,11.40
2019-02-20T14:29:37.264Z,11.50
2019-02-20T14:32:40.707Z,11.20
2019-02-20T14:35:44.957Z,11.20
2019-02-20T14:38:48.484Z,11.30
2019-02-20T14:41:53.048Z,11.10
2019-02-20T14:44:57.870Z,11.20
2019-02-20T14:48:01.494Z,10.80
2019-02-20T14:51:05.098Z,10.60
2019-02-20T14:54:08.655Z,10.60
2019-02-20T14:57:19.427Z,10.70
2019-02-20T15:00:17.409Z,10.90
2019-02-20T15:03:20.952Z,11.00
2019-02-20T15:06:24.407Z,11.10
2019-02-20T15:09:28.165Z,10.90
2019-02-20T15:12:31.672Z,10.90
2019-02-20T15:15:35.115Z,10.70
2019-02-20T15:18:38.559Z,10.50
2019-02-20T15:21:42.070Z,10.40
2019-02-20T15:24:45.734Z,10.20
2019-02-20T15:27:49.343Z,10.10
2019-02-20T15:30:52.783Z,10.00
2019-02-20T15:33:56.235Z,9.80
2019-02-20T15:36:59.979Z,9.70
2019-02-20T15:40:03.654Z,9.70
2019-02-20T15:43:07.128Z,9.70
2019-02-20T15:46:11.064Z,9.70
2019-02-20T15:49:14.572Z,9.60
2019-02-20T15:52:18.027Z,9.60
2019-02-20T15:55:21.567Z,9.60
2019-02-20T15:58:27.163Z,9.60
2019-02-20T16:01:30.527Z,9.50
2019-02-20T16:04:33.823Z,9.60
2019-02-20T16:07:37.268Z,9.50
2019-02-20T16:10:40.776Z,9.50
2019-02-20T16:13:44.291Z,9.50
2019-02-20T16:16:47.867Z,9.50
2019-02-20T16:19:51.337Z,9.50
2019-02-20T16:22:54.772Z,9.40
2019-02-20T16:25:58.367Z,9.40
2019-02-20T16:29:01.948Z,9.30
2019-02-20T16:32:05.379Z,9.30
2019-02-20T16:35:09.251Z,9.30
2019-02-20T16:38:12.703Z,9.20
2019-02-20T16:41:16.256Z,9.20
2019-02-20T16:44:19.763Z,9.20
2019-02-20T16:47:23.205Z,9.10
2019-02-20T16:50:26.664Z,9.20
2019-02-20T16:53:30.203Z,9.10
2019-02-20T16:56:33.975Z,9.10
2019-02-20T16:59:37.584Z,9.00
2019-02-20T17:02:41.185Z,9.00
2019-02-20T17:05:45.010Z,8.90
2019-02-20T17:08:48.602Z,8.90
2019-02-20T17:11:52.095Z,8.90
2019-02-20T17:14:56.936Z,8.80
2019-02-20T17:18:00.492Z,8.80
2019-02-20T17:21:04.039Z,8.80
2019-02-20T17:24:07.856Z,8.80
2019-02-20T17:27:11.252Z,8.70
2019-02-20T17:30:14.943Z,8.70
2019-02-20T17:33:18.498Z,8.60
2019-02-20T17:36:22.062Z,8.60
2019-02-20T17:39:25.568Z,8.60
2019-02-20T17:42:29.136Z,8.60
2019-02-20T17:45:32.652Z,8.60
2019-02-20T17:48:36.081Z,8.50
2019-02-20T17:51:39.548Z,8.50
2019-02-20T17:54:42.948Z,8.50
2019-02-20T17:57:46.241Z,8.50
2019-02-20T18:00:49.848Z,8.50
2019-02-20T18:03:53.248Z,8.50
2019-02-20T18:06:58.670Z,8.50
2019-02-20T18:10:01.690Z,8.50
2019-02-20T18:13:06.215Z,8.40
2019-02-20T18:16:10.735Z,8.40
2019-02-20T18:19:14.236Z,8.40
2019-02-20T18:22:17.748Z,8.40
2019-02-20T18:25:21.091Z,8.40
2019-02-20T18:28:25.004Z,8.40
2019-02-20T18:31:29.482Z,8.50
2019-02-20T18:34:32.927Z,8.40
2019-02-20T18:37:36.487Z,8.40
2019-02-20T18:40:39.920Z,8.40
2019-02-20T18:43:43.491Z,8.40
2019-02-20T18:46:46.928Z,8.40
2019-02-20T18:49:50.436Z,8.40
2019-02-20T18:52:53.891Z,8.40
2019-02-20T18:55:57.338Z,8.40
2019-02-20T18:59:00.901Z,8.40
2019-02-20T19:02:04.473Z,8.40
2019-02-20T19:05:08.247Z,8.40
2019-02-20T19:08:40.290Z,8.30
2019-02-20T19:12:29.907Z,8.30
2019-02-20T19:16:18.959Z,8.30
2019-02-20T19:19:59.344Z,8.20
2019-02-20T19:23:37.937Z,8.10
2019-02-20T19:27:25.177Z,8.10
2019-02-20T19:30:59.893Z,8.00
2019-02-20T19:34:11.802Z,8.00
2019-02-20T19:37:46.074Z,8.00
2019-02-20T19:41:32.524Z,7.90
2019-02-20T19:45:08.131Z,7.90
2019-02-20T19:48:38.204Z,7.80
2019-02-20T19:52:22.815Z,7.70
2019-02-20T19:56:22.735Z,7.70
2019-02-20T19:59:57.691Z,7.80
2019-02-20T20:03:49.059Z,7.70
2019-02-20T20:07:33.702Z,7.70
2019-02-20T20:11:12.097Z,7.70
2019-02-20T20:14:41.252Z,7.70
2019-02-20T20:18:41.287Z,7.70
2019-02-20T20:22:13.499Z,7.70
2019-02-20T20:26:16.480Z,7.70
2019-02-20T20:29:57.141Z,7.70
2019-02-20T20:34:08.698Z,7.70
2019-02-20T20:37:39.995Z,7.60
2019-02-20T20:41:12.919Z,7.60
2019-02-20T20:44:29.790Z,7.60
2019-02-20T20:48:11.889Z,7.60
2019-02-20T20:52:04.494Z,7.60
2019-02-20T20:55:52.214Z,7.60
2019-02-20T20:59:29.076Z,7.60
2019-02-20T21:02:49.607Z,7.60
2019-02-20T21:06:31.931Z,7.50
2019-02-20T21:10:08.157Z,7.60
2019-02-20T21:14:10.645Z,7.60
2019-02-20T21:17:46.819Z,7.60
2019-02-20T21:21:13.387Z,7.70
2019-02-20T21:24:54.124Z,7.70
2019-02-20T21:28:30.762Z,7.70
2019-02-20T21:32:12.961Z,7.70
2019-02-20T21:35:55.231Z,7.80
2019-02-20T21:39:35.906Z,7.80
2019-02-20T21:43:30.299Z,7.80
2019-02-20T21:47:05.880Z,7.80
2019-02-20T21:50:37.847Z,7.80
2019-02-20T21:54:04.611Z,7.80
2019-02-20T21:57:23.227Z,7.80
2019-02-20T22:01:00.834Z,7.80
2019-02-20T22:04:32.721Z,7.70
2019-02-20T22:08:12.915Z,7.70
2019-02-20T22:11:42.784Z,7.70
2019-02-20T22:15:32.902Z,7.60
2019-02-20T22:19:29.871Z,7.50
2019-02-20T22:23:33.075Z,7.40
2019-02-20T22:27:14.744Z,7.30
2019-02-20T22:30:56.731Z,7.30
2019-02-20T22:34:38.669Z,7.20
2019-02-20T22:38:18.211Z,7.10
2019-02-20T22:42:09.240Z,7.00
2019-02-20T22:45:57.039Z,7.00
2019-02-20T22:49:25.883Z,7.00
2019-02-20T22:53:07.744Z,7.10
2019-02-20T22:56:36.031Z,7.00
2019-02-20T23:00:19.676Z,6.90
2019-02-20T23:03:51.271Z,6.80
2019-02-20T23:07:17.560Z,6.80
2019-02-20T23:10:58.378Z,6.80
2019-02-20T23:14:30.970Z,6.80
2019-02-20T23:17:34.419Z,6.80
2019-02-20T23:20:37.967Z,6.80
2019-02-20T23:23:41.568Z,6.90
2019-02-20T23:26:45.031Z,7.00
2019-02-20T23:29:48.475Z,7.00
2019-02-20T23:32:51.876Z,7.10
2019-02-20T23:35:55.435Z,7.00
2019-02-20T23:38:58.875Z,7.00
2019-02-20T23:42:02.336Z,7.10
2019-02-20T23:45:05.624Z,7.10
2019-02-20T23:48:09.219Z,7.00
2019-02-20T23:51:12.683Z,7.00
2019-02-20T23:54:16.127Z,7.00
2019-02-20T23:57:19.587Z,7.00
